Sand Lake, South Dakota
Current Conditions -  °F | °C
As of 10:53 PM on Saturday 20 Dec 2014 (Local Time) from KABR Reporting Station
Overcast Overcast  
Wind Chill: 19°   Ceiling: 600
Heat Index: 30°   Visibility: 7mi
Dew Point: 27°   Wind: 16mph
Humidity: 88%   Direction: 180°S
Pressure: 29.89"   Gusts: NA
Location:  45.6832°N, 98.2967°W
Report Text: KABR 210453Z AUTO 18014KT 7SM OVC006 M01/M03 A2989 RMK AO2 SLP138 T10111028
Loading
Personal Weather Stations






























Interactive Weather Map New forecast layout! Learn more

10-Day Weather Forecast

Advertisements
Track Severe Weather on mobile